WXM80 ListenWXM80 Stop

You find our weather info also at:

UK Metoffice

WeatherCloud

Weather Underground

Northeastern Weather Network

AWEKAS

Citizen Weather Observer Program (CWOP)

HAMweather, WeatherForYou, PWS Weather


Weather Underground History page Text

Daily Summary for July 18, 2016 Units:  English    Metric   Both
« Previous Day
Next Day »
Daily Weekly Monthly Yearly Custom
  High: Low: Average:
Temperature: 96.3 °F 73.5 °F 81 °F
Dew Point: 76.6 °F 68.0 °F 72.1 °F
Humidity: 95 % 47 % 77 %
Wind Speed: 7.1 mph 0.0 mph 1.6 mph
Wind Gust: 16.1 mph - -
Wind:- - SW
Pressure: 30.07 in 29.94 in -
Precipitation: 0.33 in    
Historical Graphs
 
 
Tabular Data for July 18, 2016
Time Temperature Dew Point Pressure Wind Wind Speed Wind Gust Humidity Rainfall Rate (Hourly)
00:04 76.1 °F 71.9 °F 30.06 in South 0.5 mph 1.2 mph 87 % 0.00 in
00:09 76.0 °F 71.8 °F 30.06 in South 0.3 mph 1.2 mph 87 % 0.00 in
00:14 75.8 °F 71.7 °F 30.06 in Calm   1.2 mph 87 % 0.00 in
00:19 75.7 °F 71.6 °F 30.06 in Calm     87 % 0.00 in
00:25 75.6 °F 71.5 °F 30.06 in Calm     87 % 0.00 in
00:30 75.5 °F 71.4 °F 30.06 in South 0.3 mph 1.2 mph 87 % 0.00 in
00:35 75.4 °F 71.3 °F 30.06 in South 0.1 mph 1.2 mph 87 % 0.00 in
00:40 75.3 °F 71.2 °F 30.06 in South 0.4 mph 1.2 mph 87 % 0.00 in
00:45 75.1 °F 71.3 °F 30.06 in Calm     88 % 0.00 in
00:50 75.1 °F 71.3 °F 30.06 in Calm     88 % 0.00 in
00:55 74.9 °F 71.1 °F 30.06 in South 0.2 mph 1.2 mph 88 % 0.00 in
01:00 74.9 °F 71.1 °F 30.06 in Calm     88 % 0.00 in
01:05 74.7 °F 70.6 °F 30.06 in Calm     87 % 0.00 in
01:11 74.6 °F 70.5 °F 30.06 in Calm     87 % 0.00 in
01:16 74.5 °F 70.4 °F 30.06 in Calm   1.0 mph 87 % 0.00 in
01:21 74.4 °F 70.3 °F 30.06 in Calm   2.0 mph 87 % 0.00 in
01:26 74.3 °F 70.2 °F 30.06 in Calm     87 % 0.00 in
01:31 74.2 °F 70.1 °F 30.05 in Calm     87 % 0.00 in
01:36 74.2 °F 70.4 °F 30.05 in Calm     88 % 0.00 in
01:41 74.1 °F 70.0 °F 30.06 in Calm     87 % 0.00 in
01:46 74.0 °F 70.2 °F 30.06 in Calm   1.0 mph 88 % 0.00 in
01:51 74.0 °F 70.2 °F 30.06 in Calm   1.0 mph 88 % 0.00 in
01:56 74.0 °F 70.2 °F 30.06 in Calm   1.0 mph 88 % 0.00 in
02:01 73.9 °F 70.1 °F 30.06 in Calm   1.2 mph 88 % 0.00 in
02:06 73.9 °F 70.5 °F 30.06 in South 0.4 mph 1.2 mph 89 % 0.00 in
02:11 73.9 °F 70.5 °F 30.07 in South 1.0 mph 3.5 mph 89 % 0.00 in
02:16 73.9 °F 70.5 °F 30.07 in SSW 0.8 mph 3.5 mph 89 % 0.00 in
02:21 73.9 °F 70.5 °F 30.07 in SSW 0.3 mph 1.2 mph 89 % 0.00 in
02:26 73.9 °F 70.1 °F 30.07 in SSW 0.1 mph 1.2 mph 88 % 0.00 in
02:31 73.9 °F 70.1 °F 30.07 in SSW 0.1 mph 1.2 mph 88 % 0.00 in
02:36 73.9 °F 70.1 °F 30.07 in Calm   1.0 mph 88 % 0.00 in
02:41 73.9 °F 69.8 °F 30.07 in Calm   1.2 mph 87 % 0.00 in
02:47 74.0 °F 69.9 °F 30.07 in Calm   1.2 mph 87 % 0.00 in
02:52 74.0 °F 69.9 °F 30.07 in Calm     87 % 0.00 in
02:57 74.0 °F 69.9 °F 30.07 in SSW 0.1 mph 1.2 mph 87 % 0.00 in
03:02 74.0 °F 69.5 °F 30.06 in SSW 0.2 mph 2.3 mph 86 % 0.00 in
03:12 74.0 °F 68.9 °F 30.06 in Calm     84 % 0.00 in
03:17 74.0 °F 68.9 °F 30.06 in SSW 0.3 mph 2.3 mph 84 % 0.00 in
03:22 74.0 °F 68.9 °F 30.06 in Calm     84 % 0.00 in
03:27 74.0 °F 68.9 °F 30.06 in Calm     84 % 0.00 in
03:32 74.1 °F 69.0 °F 30.06 in Calm     84 % 0.00 in
03:38 74.1 °F 69.0 °F 30.06 in Calm     84 % 0.00 in
03:43 74.0 °F 68.5 °F 30.06 in Calm     83 % 0.00 in
03:48 74.0 °F 68.5 °F 30.06 in Calm     83 % 0.00 in
03:53 73.9 °F 68.4 °F 30.06 in Calm     83 % 0.00 in
03:58 73.9 °F 68.4 °F 30.06 in Calm     83 % 0.00 in
04:03 73.8 °F 68.3 °F 30.06 in Calm     83 % 0.00 in
04:08 73.7 °F 68.2 °F 30.06 in Calm     83 % 0.00 in
04:13 73.7 °F 68.2 °F 30.06 in Calm     83 % 0.00 in
04:18 73.7 °F 68.2 °F 30.06 in Calm     83 % 0.00 in
04:23 73.6 °F 68.5 °F 30.06 in Calm     84 % 0.00 in
04:29 73.6 °F 68.5 °F 30.06 in SW 0.5 mph 2.3 mph 84 % 0.00 in
04:34 73.6 °F 68.5 °F 30.06 in SW 0.1 mph 3.5 mph 84 % 0.00 in
04:39 73.6 °F 68.5 °F 30.05 in SW 0.3 mph 1.2 mph 84 % 0.00 in
04:44 73.6 °F 68.5 °F 30.05 in Calm     84 % 0.00 in
04:49 73.5 °F 68.0 °F 30.05 in SW 0.2 mph 1.2 mph 83 % 0.00 in
04:54 73.5 °F 68.0 °F 30.05 in SW 1.4 mph 3.0 mph 83 % 0.00 in
04:59 73.5 °F 68.4 °F 30.05 in SW 0.5 mph 2.3 mph 84 % 0.00 in
05:04 73.5 °F 68.0 °F 30.05 in SW 0.5 mph 2.3 mph 83 % 0.00 in
05:09 73.6 °F 68.1 °F 30.05 in SW 0.9 mph 2.3 mph 83 % 0.00 in
05:14 73.6 °F 68.5 °F 30.05 in SW 0.4 mph 3.5 mph 84 % 0.00 in
05:20 73.6 °F 68.5 °F 30.05 in SE 1.3 mph 3.0 mph 84 % 0.00 in
05:25 73.6 °F 68.5 °F 30.05 in SSW 1.0 mph 2.0 mph 84 % 0.00 in
05:30 73.5 °F 68.4 °F 30.05 in SSW 0.3 mph 1.2 mph 84 % 0.00 in
05:35 73.6 °F 68.5 °F 30.05 in SW 1.4 mph 3.5 mph 84 % 0.00 in
05:40 73.6 °F 68.5 °F 30.05 in SW 0.6 mph 1.2 mph 84 % 0.00 in
05:45 73.6 °F 68.5 °F 30.06 in SW 1.5 mph 3.5 mph 84 % 0.00 in
05:50 73.6 °F 68.8 °F 30.06 in SW 1.6 mph 5.8 mph 85 % 0.00 in
05:55 73.7 °F 68.9 °F 30.06 in WSW 2.2 mph 4.0 mph 85 % 0.00 in
06:00 73.8 °F 69.0 °F 30.06 in WSW 3.7 mph 5.8 mph 85 % 0.00 in
06:05 73.9 °F 69.1 °F 30.06 in SW 1.3 mph 3.5 mph 85 % 0.00 in
06:11 74.0 °F 69.2 °F 30.06 in SW 2.0 mph 8.0 mph 85 % 0.00 in
06:16 74.1 °F 69.3 °F 30.05 in SW 2.0 mph 4.0 mph 85 % 0.00 in
06:21 74.2 °F 69.4 °F 30.05 in SSW 2.0 mph 5.0 mph 85 % 0.00 in
06:26 74.4 °F 69.6 °F 30.05 in SSW 2.0 mph 3.0 mph 85 % 0.00 in
06:31 74.5 °F 69.7 °F 30.05 in SSW 2.0 mph 7.0 mph 85 % 0.00 in
06:36 74.6 °F 69.8 °F 30.06 in Calm   3.0 mph 85 % 0.00 in
06:41 74.7 °F 69.9 °F 30.06 in Calm   3.0 mph 85 % 0.00 in
06:46 74.8 °F 70.0 °F 30.05 in SW 1.0 mph 3.0 mph 85 % 0.00 in
06:51 74.9 °F 70.1 °F 30.05 in SW 1.0 mph 3.0 mph 85 % 0.00 in
06:56 75.0 °F 70.2 °F 30.06 in SW 1.0 mph 3.0 mph 85 % 0.00 in
07:01 75.2 °F 70.4 °F 30.06 in SW 0.9 mph 2.0 mph 85 % 0.00 in
07:06 75.4 °F 70.6 °F 30.06 in SW 0.4 mph 1.2 mph 85 % 0.00 in
07:11 75.7 °F 70.9 °F 30.06 in SW 1.0 mph 2.3 mph 85 % 0.00 in
07:16 76.2 °F 71.0 °F 30.06 in SW 1.9 mph 3.5 mph 84 % 0.00 in
07:21 76.7 °F 71.5 °F 30.05 in SW 1.9 mph 4.6 mph 84 % 0.00 in
07:26 77.2 °F 71.6 °F 30.06 in SSW 2.5 mph 5.8 mph 83 % 0.00 in
07:31 77.7 °F 71.8 °F 30.06 in WSW 3.5 mph 4.6 mph 82 % 0.00 in
07:36 78.2 °F 71.9 °F 30.06 in SSW 2.6 mph 3.5 mph 81 % 0.00 in
07:41 78.5 °F 71.8 °F 30.06 in SW 2.7 mph 4.6 mph 80 % 0.00 in
07:47 78.7 °F 72.0 °F 30.06 in WSW 1.5 mph 4.6 mph 80 % 0.00 in
07:52 78.9 °F 72.2 °F 30.06 in WSW 0.9 mph 4.6 mph 80 % 0.00 in
07:57 78.9 °F 72.2 °F 30.05 in SW 0.5 mph 3.5 mph 80 % 0.00 in
08:02 79.1 °F 72.4 °F 30.06 in SSW 2.7 mph 3.5 mph 80 % 0.00 in
08:07 79.1 °F 72.4 °F 30.05 in SW 2.4 mph 4.6 mph 80 % 0.00 in
08:12 79.2 °F 72.5 °F 30.05 in SW 1.8 mph 3.5 mph 80 % 0.00 in
08:17 79.4 °F 72.7 °F 30.05 in WSW 2.7 mph 7.0 mph 80 % 0.00 in
08:22 79.5 °F 72.8 °F 30.05 in SSW 2.4 mph 3.5 mph 80 % 0.00 in
08:27 79.7 °F 72.6 °F 30.05 in South 2.2 mph 4.0 mph 79 % 0.00 in
08:32 79.8 °F 72.3 °F 30.04 in WSW 2.9 mph 3.5 mph 78 % 0.00 in
08:38 80.0 °F 72.1 °F 30.05 in SW 1.6 mph 5.8 mph 77 % 0.00 in
08:43 80.2 °F 72.3 °F 30.04 in SW 0.2 mph 2.3 mph 77 % 0.00 in
08:48 80.6 °F 72.3 °F 30.04 in SW 1.1 mph 3.0 mph 76 % 0.00 in
08:53 80.8 °F 72.5 °F 30.04 in WSW 2.8 mph 4.6 mph 76 % 0.00 in
08:58 81.1 °F 72.4 °F 30.04 in West 0.8 mph 3.0 mph 75 % 0.00 in
09:03 81.4 °F 72.3 °F 30.04 in WSW 1.5 mph 4.6 mph 74 % 0.00 in
09:08 81.7 °F 72.6 °F 30.04 in SSW 1.1 mph 2.3 mph 74 % 0.00 in
09:13 82.0 °F 72.5 °F 30.04 in SW 1.3 mph 3.0 mph 73 % 0.00 in
09:18 82.3 °F 72.0 °F 30.04 in SW 3.2 mph 9.2 mph 71 % 0.00 in
09:23 82.5 °F 71.7 °F 30.04 in WSW 3.8 mph 5.8 mph 70 % 0.00 in
09:29 82.9 °F 72.1 °F 30.04 in West 1.8 mph 8.0 mph 70 % 0.00 in
09:34 83.2 °F 72.0 °F 30.04 in SW 3.9 mph 8.1 mph 69 % 0.00 in
09:39 83.4 °F 71.7 °F 30.04 in SSW 1.2 mph 8.1 mph 68 % 0.00 in
09:44 83.8 °F 71.7 °F 30.04 in SSW 3.2 mph 4.0 mph 67 % 0.00 in
09:49 84.2 °F 72.0 °F 30.03 in WSW 1.9 mph 4.0 mph 67 % 0.00 in
09:54 84.7 °F 72.1 °F 30.03 in SSW 2.1 mph 3.5 mph 66 % 0.00 in
09:59 85.2 °F 72.6 °F 30.03 in SSE 1.8 mph 3.5 mph 66 % 0.00 in
10:04 86.0 °F 71.9 °F 30.03 in SW 2.2 mph 4.6 mph 63 % 0.00 in
10:09 86.9 °F 72.8 °F 30.03 in WSW 3.0 mph 9.2 mph 63 % 0.00 in
10:14 87.7 °F 73.1 °F 30.03 in SSW 2.0 mph 4.6 mph 62 % 0.00 in
10:20 88.5 °F 71.8 °F 30.03 in WSW 2.7 mph 8.1 mph 58 % 0.00 in
10:25 89.3 °F 73.1 °F 30.03 in WSW 2.4 mph 6.0 mph 59 % 0.00 in
10:30 89.9 °F 73.1 °F 30.03 in WSW 2.3 mph 7.0 mph 58 % 0.00 in
10:35 90.6 °F 73.3 °F 30.03 in SSW 2.5 mph 4.6 mph 57 % 0.00 in
10:40 91.2 °F 73.3 °F 30.03 in SW 2.7 mph 4.6 mph 56 % 0.00 in
10:45 91.7 °F 74.3 °F 30.04 in WSW 3.7 mph 9.2 mph 57 % 0.00 in
10:50 92.1 °F 73.1 °F 30.04 in West 3.8 mph 6.9 mph 54 % 0.00 in
10:55 92.4 °F 72.8 °F 30.04 in South 2.9 mph 5.0 mph 53 % 0.00 in
11:00 92.8 °F 73.2 °F 30.04 in SSW 5.9 mph 6.9 mph 53 % 0.00 in
11:05 92.9 °F 72.7 °F 30.04 in SSW 5.8 mph 8.1 mph 52 % 0.00 in
11:11 93.2 °F 73.5 °F 30.04 in SW 6.0 mph 10.0 mph 53 % 0.00 in
11:16 93.5 °F 73.8 °F 30.04 in WSW 5.1 mph 10.4 mph 53 % 0.00 in
11:21 93.7 °F 73.4 °F 30.04 in West 3.0 mph 10.0 mph 52 % 0.00 in
11:26 94.0 °F 73.7 °F 30.04 in WSW 5.0 mph 10.0 mph 52 % 0.00 in
11:31 94.2 °F 76.6 °F 30.04 in SW 1.0 mph 3.5 mph 57 % 0.00 in
11:36 94.3 °F 72.2 °F 30.03 in WSW 6.0 mph 12.0 mph 49 % 0.00 in
11:41 94.4 °F 73.5 °F 30.03 in West 5.0 mph 12.0 mph 51 % 0.00 in
11:46 94.4 °F 74.1 °F 30.03 in SSW 4.4 mph 8.1 mph 52 % 0.00 in
11:51 94.6 °F 74.2 °F 30.03 in SW 6.0 mph 12.0 mph 52 % 0.00 in
11:56 94.7 °F 73.8 °F 30.03 in WSW 6.0 mph 12.0 mph 51 % 0.00 in
12:01 94.7 °F 73.2 °F 30.03 in SW 7.1 mph 11.5 mph 50 % 0.00 in
12:06 94.7 °F 72.6 °F 30.03 in WSW 7.0 mph 12.0 mph 49 % 0.00 in
12:11 94.9 °F 74.5 °F 30.02 in WSW 3.0 mph 9.0 mph 52 % 0.00 in
12:16 94.9 °F 74.6 °F 30.02 in West 1.0 mph 12.0 mph 52 % 0.00 in
12:20 95.3 °F 74.3 °F 30.02 in WNW 5.1 mph 9.0 mph 51 % 0.00 in
12:26 95.2 °F 73.6 °F 30.02 in WSW 6.0 mph 12.0 mph 50 % 0.00 in
12:31 95.2 °F 74.2 °F 30.01 in WNW 3.3 mph 3.5 mph 51 % 0.00 in
12:36 95.5 °F 73.9 °F 30.01 in West 5.1 mph 9.0 mph 50 % 0.00 in
12:41 95.6 °F 73.4 °F 30.01 in WSW 4.9 mph 11.5 mph 49 % 0.00 in
12:47 95.6 °F 74.0 °F 30.01 in WNW 4.6 mph 8.1 mph 50 % 0.00 in
12:52 95.6 °F 74.0 °F 30.01 in WSW 1.8 mph 5.8 mph 50 % 0.00 in
12:57 95.6 °F 74.6 °F 30.01 in WSW 3.0 mph 8.1 mph 51 % 0.00 in
13:02 95.6 °F 74.0 °F 30.00 in WNW 5.1 mph 6.9 mph 50 % 0.00 in
13:07 95.8 °F 73.6 °F 30.00 in SW 3.3 mph 6.0 mph 49 % 0.00 in
13:12 95.9 °F 73.7 °F 30.00 in WSW 4.8 mph 8.1 mph 49 % 0.00 in
13:17 96.0 °F 75.0 °F 30.00 in NW 1.9 mph 5.8 mph 51 % 0.00 in
13:22 96.1 °F 73.8 °F 29.99 in South 4.4 mph 6.9 mph 49 % 0.00 in
13:27 96.2 °F 74.5 °F 30.00 in South 4.6 mph 8.0 mph 50 % 0.00 in
13:32 96.3 °F 74.0 °F 29.99 in WSW 1.5 mph 5.8 mph 49 % 0.00 in
13:38 96.2 °F 73.9 °F 29.98 in West 3.7 mph 10.4 mph 49 % 0.00 in
13:43 96.1 °F 72.6 °F 29.98 in SSW 5.6 mph 11.5 mph 47 % 0.00 in
13:48 96.1 °F 74.5 °F 29.97 in SW 1.9 mph 3.5 mph 50 % 0.00 in
13:53 96.2 °F 75.1 °F 29.97 in SSW 6.8 mph 11.5 mph 51 % 0.00 in
13:58 96.1 °F 73.8 °F 29.97 in South 2.3 mph 4.6 mph 49 % 0.00 in
14:03 96.1 °F 75.0 °F 29.97 in NNE 0.9 mph 3.5 mph 51 % 0.00 in
14:08 96.2 °F 74.5 °F 29.97 in SSW 4.8 mph 11.5 mph 50 % 0.00 in
14:13 96.2 °F 75.7 °F 29.97 in SW 2.9 mph 5.8 mph 52 % 0.00 in
14:18 96.3 °F 74.0 °F 29.96 in South 2.4 mph 4.6 mph 49 % 0.00 in
14:23 96.1 °F 74.5 °F 29.96 in SSW 3.1 mph 5.0 mph 50 % 0.00 in
14:28 96.0 °F 74.4 °F 29.96 in South 1.7 mph 4.6 mph 50 % 0.00 in
14:34 95.9 °F 75.4 °F 29.96 in SSW 5.0 mph 8.1 mph 52 % 0.00 in
14:39 95.9 °F 74.9 °F 29.96 in South 6.2 mph 16.1 mph 51 % 0.00 in
14:44 95.6 °F 74.6 °F 29.96 in WSW 4.1 mph 9.2 mph 51 % 0.00 in
14:49 95.6 °F 75.2 °F 29.96 in WSW 4.8 mph 9.0 mph 52 % 0.00 in
14:54 95.7 °F 75.3 °F 29.96 in SSW 5.2 mph 12.7 mph 52 % 0.00 in
14:59 95.6 °F 74.6 °F 29.96 in SSE 1.9 mph 3.5 mph 51 % 0.00 in
15:04 95.4 °F 74.4 °F 29.96 in SW 3.5 mph 5.8 mph 51 % 0.00 in
15:09 95.2 °F 74.8 °F 29.96 in WSW 3.8 mph 9.2 mph 52 % 0.00 in
15:14 95.0 °F 74.6 °F 29.96 in SSW 5.2 mph 8.1 mph 52 % 0.00 in
15:19 94.4 °F 73.5 °F 29.96 in SSW 4.0 mph 10.0 mph 51 % 0.00 in
15:24 93.9 °F 74.7 °F 29.96 in SW 3.9 mph 13.8 mph 54 % 0.00 in
15:30 93.6 °F 74.5 °F 29.96 in South 5.5 mph 8.0 mph 54 % 0.00 in
15:35 93.1 °F 74.5 °F 29.96 in SSW 3.7 mph 15.0 mph 55 % 0.00 in
15:40 92.7 °F 74.2 °F 29.96 in SW 3.7 mph 8.1 mph 55 % 0.00 in
15:45 92.5 °F 74.5 °F 29.96 in SSW 1.4 mph 4.6 mph 56 % 0.00 in
15:50 92.2 °F 74.8 °F 29.95 in SSW 3.3 mph 4.6 mph 57 % 0.00 in
15:55 91.6 °F 74.2 °F 29.95 in SE 1.4 mph 7.0 mph 57 % 0.00 in
16:00 91.1 °F 74.3 °F 29.95 in SSW 2.7 mph 6.9 mph 58 % 0.00 in
16:05 90.6 °F 74.3 °F 29.95 in SSW 2.5 mph 3.5 mph 59 % 0.00 in
16:10 90.2 °F 73.9 °F 29.95 in SSE 1.8 mph 4.0 mph 59 % 0.00 in
16:15 89.8 °F 74.1 °F 29.95 in South 2.7 mph 3.5 mph 60 % 0.00 in
16:21 89.4 °F 74.2 °F 29.95 in South 1.0 mph 4.0 mph 61 % 0.00 in
16:26 89.0 °F 74.3 °F 29.94 in SSW 2.0 mph 6.0 mph 62 % 0.00 in
16:31 88.7 °F 74.5 °F 29.94 in SSW 1.0 mph 4.0 mph 63 % 0.00 in
16:36 88.5 °F 74.7 °F 29.95 in South 2.0 mph 4.0 mph 64 % 0.00 in
16:41 88.3 °F 75.0 °F 29.95 in SSW 2.0 mph 5.0 mph 65 % 0.00 in
16:46 88.0 °F 75.2 °F 29.95 in SSW 1.0 mph 4.0 mph 66 % 0.00 in
16:51 87.7 °F 75.4 °F 29.95 in SSW 2.0 mph 4.0 mph 67 % 0.00 in
16:56 87.5 °F 75.6 °F 29.97 in WSW 2.0 mph 10.0 mph 68 % 0.00 in
17:01 86.8 °F 71.2 °F 29.97 in SSW 4.5 mph 6.9 mph 60 % 0.00 in
17:06 86.0 °F 72.9 °F 29.97 in NNE 4.9 mph 8.1 mph 65 % 0.02 in
17:11 84.3 °F 73.0 °F 29.99 in NW 4.0 mph 8.1 mph 69 % 0.05 in
17:16 82.4 °F 72.5 °F 29.99 in West 3.8 mph 6.9 mph 72 % 0.08 in
17:21 81.0 °F 72.3 °F 29.99 in West 1.9 mph 11.5 mph 75 % 0.09 in
17:26 80.0 °F 72.5 °F 29.98 in NNW 0.6 mph 2.3 mph 78 % 0.24 in
17:31 79.1 °F 72.4 °F 29.98 in SW 1.6 mph 3.0 mph 80 % 0.32 in
17:36 78.4 °F 72.8 °F 29.98 in Calm     83 % 0.33 in
17:41 77.7 °F 72.8 °F 29.96 in NE 0.3 mph 2.3 mph 85 % 0.33 in
17:46 77.3 °F 72.8 °F 29.97 in ENE 0.3 mph 1.0 mph 86 % 0.33 in
17:52 77.1 °F 72.9 °F 29.99 in SSE 1.4 mph 3.0 mph 87 % 0.33 in
17:57 76.9 °F 73.1 °F 29.99 in South 0.6 mph 3.5 mph 88 % 0.33 in
18:02 76.6 °F 72.8 °F 29.98 in WSW 1.2 mph 3.5 mph 88 % 0.33 in
18:07 76.4 °F 72.9 °F 29.98 in Calm     89 % 0.31 in
18:12 76.3 °F 73.1 °F 29.98 in SW 0.8 mph 2.3 mph 90 % 0.26 in
18:17 76.2 °F 73.1 °F 29.97 in WSW 0.6 mph 1.2 mph 90 % 0.25 in
18:22 76.2 °F 73.4 °F 29.97 in West 0.4 mph 3.0 mph 91 % 0.22 in
18:27 76.2 °F 73.4 °F 29.97 in West 0.4 mph 2.3 mph 91 % 0.07 in
18:32 76.1 °F 73.3 °F 29.96 in Calm   1.2 mph 91 % 0.01 in
18:37 76.1 °F 73.6 °F 29.96 in West 0.5 mph 2.3 mph 92 % 0.00 in
18:42 76.2 °F 73.7 °F 29.96 in WSW 1.0 mph 2.3 mph 92 % 0.00 in
18:48 76.2 °F 73.7 °F 29.96 in WSW 0.6 mph 2.3 mph 92 % 0.00 in
18:53 76.3 °F 73.8 °F 29.96 in WSW 0.6 mph 2.3 mph 92 % 0.00 in
18:58 76.3 °F 74.1 °F 29.96 in Calm   2.3 mph 93 % 0.00 in
19:03 76.4 °F 74.2 °F 29.96 in WSW 0.7 mph 2.0 mph 93 % 0.00 in
19:08 76.4 °F 74.2 °F 29.95 in WSW 0.6 mph 3.0 mph 93 % 0.00 in
19:13 76.3 °F 74.1 °F 29.96 in WSW 0.4 mph 2.3 mph 93 % 0.00 in
19:18 76.3 °F 74.1 °F 29.95 in WSW 0.3 mph 1.2 mph 93 % 0.00 in
19:23 76.3 °F 73.8 °F 29.95 in Calm   1.2 mph 92 % 0.00 in
19:28 76.2 °F 73.7 °F 29.96 in SW 0.3 mph 1.2 mph 92 % 0.00 in
19:33 76.2 °F 73.4 °F 29.96 in Calm     91 % 0.00 in
19:38 76.0 °F 73.2 °F 29.96 in SW 0.1 mph 1.0 mph 91 % 0.00 in
19:43 76.0 °F 73.2 °F 29.96 in SW 0.5 mph 1.2 mph 91 % 0.00 in
19:49 75.9 °F 73.1 °F 29.96 in Calm   1.2 mph 91 % 0.00 in
19:54 75.8 °F 73.0 °F 29.96 in Calm   2.3 mph 91 % 0.00 in
19:59 75.7 °F 72.9 °F 29.96 in Calm     91 % 0.00 in
20:04 75.6 °F 72.8 °F 29.96 in SW 0.1 mph 1.0 mph 91 % 0.00 in
20:09 75.5 °F 72.7 °F 29.96 in Calm     91 % 0.00 in
20:14 75.4 °F 72.6 °F 29.96 in SW 0.7 mph 3.5 mph 91 % 0.00 in
20:19 75.3 °F 72.2 °F 29.95 in Calm     90 % 0.00 in
20:24 75.1 °F 72.3 °F 29.96 in SW 0.2 mph 1.2 mph 91 % 0.00 in
20:29 75.0 °F 72.2 °F 29.95 in SW 0.5 mph 2.3 mph 91 % 0.00 in
20:35 74.9 °F 72.1 °F 29.95 in SW 0.3 mph 1.2 mph 91 % 0.00 in
20:40 74.8 °F 72.0 °F 29.96 in Calm   1.2 mph 91 % 0.00 in
20:45 74.7 °F 71.9 °F 29.95 in Calm   1.2 mph 91 % 0.00 in
20:50 74.6 °F 71.8 °F 29.95 in SW 0.2 mph 1.2 mph 91 % 0.00 in
20:55 74.5 °F 72.0 °F 29.95 in SE 0.6 mph 3.5 mph 92 % 0.00 in
21:00 74.6 °F 72.4 °F 29.95 in South 0.6 mph 2.3 mph 93 % 0.00 in
21:05 74.6 °F 72.4 °F 29.94 in SSE 0.9 mph 2.3 mph 93 % 0.00 in
21:10 74.5 °F 72.3 °F 29.95 in SW 1.0 mph 2.3 mph 93 % 0.00 in
21:15 74.5 °F 72.3 °F 29.95 in SW 1.2 mph 2.3 mph 93 % 0.00 in
21:20 74.5 °F 72.3 °F 29.95 in SW 0.5 mph 2.3 mph 93 % 0.00 in
21:26 74.4 °F 72.2 °F 29.95 in SW 1.0 mph 3.0 mph 93 % 0.00 in
21:31 74.4 °F 72.2 °F 29.96 in Calm   2.0 mph 93 % 0.00 in
21:36 74.4 °F 72.2 °F 29.96 in WSW 1.3 mph 2.3 mph 93 % 0.00 in
21:41 74.3 °F 72.1 °F 29.97 in West 0.7 mph   93 % 0.00 in
21:46 74.3 °F 72.5 °F 29.97 in West 0.5 mph 2.3 mph 94 % 0.00 in
21:51 74.3 °F 72.5 °F 29.97 in Calm   1.2 mph 94 % 0.00 in
21:56 74.3 °F 72.5 °F 29.98 in WSW 0.2 mph 1.2 mph 94 % 0.00 in
22:01 74.2 °F 72.4 °F 29.98 in SW 0.7 mph 2.3 mph 94 % 0.00 in
22:06 74.2 °F 72.4 °F 29.98 in SSW 0.5 mph 2.3 mph 94 % 0.00 in
22:11 74.2 °F 72.4 °F 29.98 in SSW 0.2 mph 1.2 mph 94 % 0.00 in
22:16 74.2 °F 72.4 °F 29.98 in West 0.4 mph 3.5 mph 94 % 0.00 in
22:21 74.2 °F 72.4 °F 29.97 in Calm     94 % 0.00 in
22:27 74.2 °F 72.4 °F 29.97 in West 0.1 mph 1.2 mph 94 % 0.00 in
22:32 74.2 °F 72.4 °F 29.97 in SW 0.1 mph 1.2 mph 94 % 0.00 in
22:37 74.2 °F 72.4 °F 29.98 in NW 0.7 mph 2.3 mph 94 % 0.00 in
22:42 74.2 °F 72.4 °F 29.97 in West 0.9 mph 3.5 mph 94 % 0.00 in
22:47 74.2 °F 72.4 °F 29.98 in West 3.7 mph 5.8 mph 94 % 0.00 in
22:52 74.3 °F 72.8 °F 29.97 in SSW 1.5 mph 3.5 mph 95 % 0.00 in
22:57 74.3 °F 72.8 °F 29.97 in South 0.3 mph 4.6 mph 95 % 0.00 in
23:02 74.4 °F 72.9 °F 29.97 in SW 4.0 mph 6.0 mph 95 % 0.00 in
23:07 74.4 °F 72.9 °F 29.97 in Calm     95 % 0.00 in
23:13 74.4 °F 72.9 °F 29.97 in SW 0.6 mph 2.0 mph 95 % 0.00 in
23:18 74.4 °F 72.9 °F 29.97 in Calm     95 % 0.00 in
23:23 74.4 °F 72.9 °F 29.96 in Calm     95 % 0.00 in
23:28 74.3 °F 72.8 °F 29.97 in Calm   1.2 mph 95 % 0.00 in
23:33 74.3 °F 72.5 °F 29.96 in Calm     94 % 0.00 in
23:38 74.3 °F 72.5 °F 29.96 in SW 0.6 mph 2.3 mph 94 % 0.00 in
23:43 74.3 °F 72.5 °F 29.96 in WNW 1.7 mph 3.0 mph 94 % 0.00 in
23:48 74.3 °F 72.8 °F 29.96 in Calm     95 % 0.00 in
23:53 74.3 °F 72.5 °F 29.95 in SW 0.3 mph 1.2 mph 94 % 0.00 in
23:58 74.2 °F 72.4 °F 29.96 in WSW 0.6 mph 3.5 mph 94 % 0.00 in
Crab Meadow Weather
Compliments of Weather Underground - 3 mb

Script developed by  Jim McMurry - jmcmurry@mwt.net Adapted for the template by  Wim van der Kuil - Leuven-Template.eu

Weather Terms: Tornado Warning - Strong rotation in a thunderstorm is indicated by Doppler radar or a tornado is sighted by skywarn spotters. These warnings are issued on a county by county basis by the local Weather Forecast office in Upton.